sensor_id;sensor_type;location;lat;lon;timestamp;P1;durP1;ratioP1;P2;durP2;ratioP2
84142;SDS011;74260;50.772;7.730;2024-03-22T00:00:03;38.13;;;19.08;;
84142;SDS011;74260;50.772;7.730;2024-03-22T00:00:34;36.55;;;17.50;;
84142;SDS011;74260;50.772;7.730;2024-03-22T00:01:06;39.67;;;18.48;;
84142;SDS011;74260;50.772;7.730;2024-03-22T00:01:39;39.88;;;19.15;;
84142;SDS011;74260;50.772;7.730;2024-03-22T00:02:21;38.00;;;17.85;;
84142;SDS011;74260;50.772;7.730;2024-03-22T00:02:53;39.80;;;18.10;;
84142;SDS011;74260;50.772;7.730;2024-03-22T00:03:32;38.13;;;18.60;;
84142;SDS011;74260;50.772;7.730;2024-03-22T00:04:14;39.25;;;17.77;;
84142;SDS011;74260;50.772;7.730;2024-03-22T00:04:46;26.80;;;11.55;;
84142;SDS011;74260;50.772;7.730;2024-03-22T00:05:20;30.52;;;14.35;;
84142;SDS011;74260;50.772;7.730;2024-03-22T00:05:53;33.50;;;14.48;;
84142;SDS011;74260;50.772;7.730;2024-03-22T00:06:25;31.45;;;15.65;;
84142;SDS011;74260;50.772;7.730;2024-03-22T00:07:09;34.03;;;16.00;;
84142;SDS011;74260;50.772;7.730;2024-03-22T00:07:40;38.13;;;17.52;;
84142;SDS011;74260;50.772;7.730;2024-03-22T00:08:10;32.90;;;15.52;;
84142;SDS011;74260;50.772;7.730;2024-03-22T00:08:41;37.08;;;15.57;;
84142;SDS011;74260;50.772;7.730;2024-03-22T00:09:11;38.47;;;16.15;;
84142;SDS011;74260;50.772;7.730;2024-03-22T00:09:47;38.13;;;15.80;;
84142;SDS011;74260;50.772;7.730;2024-03-22T00:10:18;36.40;;;17.15;;
84142;SDS011;74260;50.772;7.730;2024-03-22T00:10:50;27.48;;;13.32;;
84142;SDS011;74260;50.772;7.730;2024-03-22T00:11:23;26.83;;;13.40;;
84142;SDS011;74260;50.772;7.730;2024-03-22T00:11:55;21.08;;;10.93;;
84142;SDS011;74260;50.772;7.730;2024-03-22T00:12:27;21.90;;;10.20;;
84142;SDS011;74260;50.772;7.730;2024-03-22T00:12:57;23.60;;;9.55;;
84142;SDS011;74260;50.772;7.730;2024-03-22T00:13:29;20.50;;;10.30;;
84142;SDS011;74260;50.772;7.730;2024-03-22T00:14:00;18.45;;;9.75;;
84142;SDS011;74260;50.772;7.730;2024-03-22T00:14:33;18.80;;;9.63;;
84142;SDS011;74260;50.772;7.730;2024-03-22T00:15:03;20.10;;;9.95;;
84142;SDS011;74260;50.772;7.730;2024-03-22T00:15:34;18.20;;;9.65;;
84142;SDS011;74260;50.772;7.730;2024-03-22T00:16:05;17.30;;;9.15;;
84142;SDS011;74260;50.772;7.730;2024-03-22T00:16:37;33.50;;;10.20;;
84142;SDS011;74260;50.772;7.730;2024-03-22T00:17:08;20.38;;;10.57;;
84142;SDS011;74260;50.772;7.730;2024-03-22T00:17:38;23.40;;;11.23;;
84142;SDS011;74260;50.772;7.730;2024-03-22T00:18:19;23.23;;;11.13;;
84142;SDS011;74260;50.772;7.730;2024-03-22T00:18:49;22.00;;;11.18;;
84142;SDS011;74260;50.772;7.730;2024-03-22T00:19:20;20.85;;;10.38;;
84142;SDS011;74260;50.772;7.730;2024-03-22T00:19:51;27.83;;;11.18;;
84142;SDS011;74260;50.772;7.730;2024-03-22T00:20:23;24.60;;;11.95;;
84142;SDS011;74260;50.772;7.730;2024-03-22T00:20:54;23.10;;;12.20;;
84142;SDS011;74260;50.772;7.730;2024-03-22T00:21:25;25.88;;;12.60;;
84142;SDS011;74260;50.772;7.730;2024-03-22T00:21:58;22.45;;;11.57;;
84142;SDS011;74260;50.772;7.730;2024-03-22T00:22:30;27.50;;;13.10;;
84142;SDS011;74260;50.772;7.730;2024-03-22T00:23:03;26.23;;;13.27;;
84142;SDS011;74260;50.772;7.730;2024-03-22T00:23:36;30.00;;;12.70;;
84142;SDS011;74260;50.772;7.730;2024-03-22T00:24:09;24.15;;;11.95;;
84142;SDS011;74260;50.772;7.730;2024-03-22T00:24:40;30.15;;;13.90;;
84142;SDS011;74260;50.772;7.730;2024-03-22T00:25:10;27.73;;;13.20;;
84142;SDS011;74260;50.772;7.730;2024-03-22T00:25:42;27.42;;;13.98;;
84142;SDS011;74260;50.772;7.730;2024-03-22T00:26:12;29.50;;;12.40;;
84142;SDS011;74260;50.772;7.730;2024-03-22T00:26:43;29.75;;;12.60;;
84142;SDS011;74260;50.772;7.730;2024-03-22T00:27:13;29.80;;;14.23;;
84142;SDS011;74260;50.772;7.730;2024-03-22T00:27:46;36.60;;;13.95;;
84142;SDS011;74260;50.772;7.730;2024-03-22T00:28:17;34.97;;;15.55;;
84142;SDS011;74260;50.772;7.730;2024-03-22T00:28:47;30.27;;;14.82;;
84142;SDS011;74260;50.772;7.730;2024-03-22T00:29:19;34.45;;;15.43;;
84142;SDS011;74260;50.772;7.730;2024-03-22T00:29:51;32.85;;;15.20;;
84142;SDS011;74260;50.772;7.730;2024-03-22T00:30:22;36.70;;;15.85;;
84142;SDS011;74260;50.772;7.730;2024-03-22T00:30:55;35.55;;;15.93;;
84142;SDS011;74260;50.772;7.730;2024-03-22T00:31:26;37.83;;;16.90;;
84142;SDS011;74260;50.772;7.730;2024-03-22T00:31:59;41.15;;;17.55;;
84142;SDS011;74260;50.772;7.730;2024-03-22T00:32:30;38.03;;;17.02;;
84142;SDS011;74260;50.772;7.730;2024-03-22T00:33:01;38.50;;;18.27;;
84142;SDS011;74260;50.772;7.730;2024-03-22T00:33:41;35.42;;;15.32;;
84142;SDS011;74260;50.772;7.730;2024-03-22T00:34:14;35.25;;;15.32;;
84142;SDS011;74260;50.772;7.730;2024-03-22T00:34:48;32.80;;;15.60;;
84142;SDS011;74260;50.772;7.730;2024-03-22T00:35:19;39.22;;;18.85;;
84142;SDS011;74260;50.772;7.730;2024-03-22T00:35:51;36.30;;;16.23;;
84142;SDS011;74260;50.772;7.730;2024-03-22T00:36:24;35.50;;;16.85;;
84142;SDS011;74260;50.772;7.730;2024-03-22T00:36:55;36.55;;;16.30;;
84142;SDS011;74260;50.772;7.730;2024-03-22T00:37:27;32.90;;;14.27;;
84142;SDS011;74260;50.772;7.730;2024-03-22T00:38:10;39.50;;;18.15;;
84142;SDS011;74260;50.772;7.730;2024-03-22T00:38:43;35.85;;;15.57;;
84142;SDS011;74260;50.772;7.730;2024-03-22T00:39:16;32.17;;;15.63;;
84142;SDS011;74260;50.772;7.730;2024-03-22T00:39:47;37.53;;;16.08;;
84142;SDS011;74260;50.772;7.730;2024-03-22T00:40:28;31.70;;;14.52;;
84142;SDS011;74260;50.772;7.730;2024-03-22T00:40:58;34.20;;;14.13;;
84142;SDS011;74260;50.772;7.730;2024-03-22T00:41:37;31.85;;;14.25;;
84142;SDS011;74260;50.772;7.730;2024-03-22T00:42:10;31.15;;;15.70;;
84142;SDS011;74260;50.772;7.730;2024-03-22T00:42:41;42.42;;;18.08;;
84142;SDS011;74260;50.772;7.730;2024-03-22T00:43:17;36.78;;;17.33;;
84142;SDS011;74260;50.772;7.730;2024-03-22T00:43:53;33.08;;;15.05;;
84142;SDS011;74260;50.772;7.730;2024-03-22T00:44:23;32.90;;;14.85;;
84142;SDS011;74260;50.772;7.730;2024-03-22T00:45:05;29.02;;;12.77;;
84142;SDS011;74260;50.772;7.730;2024-03-22T00:45:45;28.45;;;12.63;;
84142;SDS011;74260;50.772;7.730;2024-03-22T00:46:15;29.35;;;12.93;;
84142;SDS011;74260;50.772;7.730;2024-03-22T00:46:46;28.73;;;13.52;;
84142;SDS011;74260;50.772;7.730;2024-03-22T00:47:18;28.27;;;12.07;;
84142;SDS011;74260;50.772;7.730;2024-03-22T00:47:50;32.75;;;14.77;;
84142;SDS011;74260;50.772;7.730;2024-03-22T00:48:34;31.63;;;13.43;;
84142;SDS011;74260;50.772;7.730;2024-03-22T00:49:05;24.40;;;11.52;;
84142;SDS011;74260;50.772;7.730;2024-03-22T00:49:36;27.42;;;13.32;;
84142;SDS011;74260;50.772;7.730;2024-03-22T00:50:10;26.67;;;12.15;;
84142;SDS011;74260;50.772;7.730;2024-03-22T00:50:45;28.52;;;13.95;;
84142;SDS011;74260;50.772;7.730;2024-03-22T00:51:22;20.25;;;10.68;;
84142;SDS011;74260;50.772;7.730;2024-03-22T00:51:52;21.10;;;10.45;;
84142;SDS011;74260;50.772;7.730;2024-03-22T00:52:25;24.38;;;10.32;;
84142;SDS011;74260;50.772;7.730;2024-03-22T00:52:58;19.42;;;9.75;;
84142;SDS011;74260;50.772;7.730;2024-03-22T00:53:30;19.58;;;10.18;;
84142;SDS011;74260;50.772;7.730;2024-03-22T00:54:38;19.35;;;9.00;;
84142;SDS011;74260;50.772;7.730;2024-03-22T00:55:10;20.88;;;10.50;;
84142;SDS011;74260;50.772;7.730;2024-03-22T00:55:41;23.63;;;11.07;;
84142;SDS011;74260;50.772;7.730;2024-03-22T00:56:13;23.67;;;11.18;;
84142;SDS011;74260;50.772;7.730;2024-03-22T00:56:44;25.42;;;11.60;;
84142;SDS011;74260;50.772;7.730;2024-03-22T00:57:16;24.90;;;11.00;;
84142;SDS011;74260;50.772;7.730;2024-03-22T00:57:47;22.45;;;11.45;;
84142;SDS011;74260;50.772;7.730;2024-03-22T00:58:22;25.05;;;11.23;;
84142;SDS011;74260;50.772;7.730;2024-03-22T00:58:52;26.73;;;12.57;;
84142;SDS011;74260;50.772;7.730;2024-03-22T00:59:24;30.63;;;14.23;;
84142;SDS011;74260;50.772;7.730;2024-03-22T00:59:58;27.40;;;12.93;;
84142;SDS011;74260;50.772;7.730;2024-03-22T01:00:31;31.67;;;15.05;;
84142;SDS011;74260;50.772;7.730;2024-03-22T01:01:02;35.00;;;15.25;;
84142;SDS011;74260;50.772;7.730;2024-03-22T01:01:35;37.45;;;16.08;;
84142;SDS011;74260;50.772;7.730;2024-03-22T01:02:07;32.75;;;16.58;;
84142;SDS011;74260;50.772;7.730;2024-03-22T01:02:40;37.58;;;17.00;;
84142;SDS011;74260;50.772;7.730;2024-03-22T01:03:13;38.25;;;16.58;;
84142;SDS011;74260;50.772;7.730;2024-03-22T01:03:51;37.00;;;15.68;;
84142;SDS011;74260;50.772;7.730;2024-03-22T01:04:24;35.28;;;15.95;;
84142;SDS011;74260;50.772;7.730;2024-03-22T01:04:57;38.15;;;17.00;;
84142;SDS011;74260;50.772;7.730;2024-03-22T01:05:28;35.92;;;15.88;;
84142;SDS011;74260;50.772;7.730;2024-03-22T01:05:59;34.92;;;17.48;;
84142;SDS011;74260;50.772;7.730;2024-03-22T01:06:31;37.92;;;16.60;;
84142;SDS011;74260;50.772;7.730;2024-03-22T01:07:02;36.28;;;16.55;;
84142;SDS011;74260;50.772;7.730;2024-03-22T01:07:36;34.17;;;15.60;;
84142;SDS011;74260;50.772;7.730;2024-03-22T01:08:26;33.80;;;15.13;;
84142;SDS011;74260;50.772;7.730;2024-03-22T01:09:00;33.38;;;16.27;;
84142;SDS011;74260;50.772;7.730;2024-03-22T01:09:35;35.00;;;14.90;;
84142;SDS011;74260;50.772;7.730;2024-03-22T01:10:06;33.17;;;16.13;;
84142;SDS011;74260;50.772;7.730;2024-03-22T01:10:39;35.38;;;14.82;;
84142;SDS011;74260;50.772;7.730;2024-03-22T01:11:13;36.53;;;15.18;;
84142;SDS011;74260;50.772;7.730;2024-03-22T01:11:44;34.30;;;15.68;;
84142;SDS011;74260;50.772;7.730;2024-03-22T01:12:15;33.60;;;15.75;;
84142;SDS011;74260;50.772;7.730;2024-03-22T01:12:47;37.80;;;15.60;;
84142;SDS011;74260;50.772;7.730;2024-03-22T01:13:19;38.65;;;15.88;;
84142;SDS011;74260;50.772;7.730;2024-03-22T01:13:51;39.00;;;16.58;;
84142;SDS011;74260;50.772;7.730;2024-03-22T01:14:21;37.17;;;17.25;;
84142;SDS011;74260;50.772;7.730;2024-03-22T01:14:54;35.45;;;16.10;;
84142;SDS011;74260;50.772;7.730;2024-03-22T01:15:26;36.60;;;16.17;;
84142;SDS011;74260;50.772;7.730;2024-03-22T01:16:00;40.70;;;17.70;;
84142;SDS011;74260;50.772;7.730;2024-03-22T01:16:30;31.55;;;14.15;;
84142;SDS011;74260;50.772;7.730;2024-03-22T01:17:01;35.30;;;16.58;;
84142;SDS011;74260;50.772;7.730;2024-03-22T01:17:31;39.35;;;16.58;;
84142;SDS011;74260;50.772;7.730;2024-03-22T01:18:02;39.17;;;17.08;;
84142;SDS011;74260;50.772;7.730;2024-03-22T01:18:33;36.38;;;16.08;;
84142;SDS011;74260;50.772;7.730;2024-03-22T01:19:05;34.00;;;15.40;;
84142;SDS011;74260;50.772;7.730;2024-03-22T01:19:35;33.17;;;14.95;;
84142;SDS011;74260;50.772;7.730;2024-03-22T01:20:07;37.97;;;15.60;;
84142;SDS011;74260;50.772;7.730;2024-03-22T01:20:39;42.10;;;15.95;;
84142;SDS011;74260;50.772;7.730;2024-03-22T01:21:12;35.45;;;15.15;;
84142;SDS011;74260;50.772;7.730;2024-03-22T01:21:42;36.42;;;16.38;;
84142;SDS011;74260;50.772;7.730;2024-03-22T01:22:17;33.28;;;14.48;;
84142;SDS011;74260;50.772;7.730;2024-03-22T01:22:49;31.88;;;14.25;;
84142;SDS011;74260;50.772;7.730;2024-03-22T01:23:19;26.98;;;12.52;;
84142;SDS011;74260;50.772;7.730;2024-03-22T01:23:52;26.55;;;12.70;;
84142;SDS011;74260;50.772;7.730;2024-03-22T01:24:25;27.35;;;14.63;;
84142;SDS011;74260;50.772;7.730;2024-03-22T01:24:58;27.30;;;12.80;;
84142;SDS011;74260;50.772;7.730;2024-03-22T01:25:30;29.85;;;14.57;;
84142;SDS011;74260;50.772;7.730;2024-03-22T01:26:03;34.80;;;15.63;;
84142;SDS011;74260;50.772;7.730;2024-03-22T01:26:37;33.22;;;14.93;;
84142;SDS011;74260;50.772;7.730;2024-03-22T01:27:09;34.30;;;14.88;;
84142;SDS011;74260;50.772;7.730;2024-03-22T01:27:45;32.85;;;14.77;;
84142;SDS011;74260;50.772;7.730;2024-03-22T01:28:18;31.35;;;14.60;;
84142;SDS011;74260;50.772;7.730;2024-03-22T01:28:54;33.75;;;16.63;;
84142;SDS011;74260;50.772;7.730;2024-03-22T01:29:26;41.40;;;17.98;;
84142;SDS011;74260;50.772;7.730;2024-03-22T01:30:02;45.67;;;19.25;;
84142;SDS011;74260;50.772;7.730;2024-03-22T01:30:33;44.63;;;18.63;;
84142;SDS011;74260;50.772;7.730;2024-03-22T01:31:04;42.33;;;18.85;;
84142;SDS011;74260;50.772;7.730;2024-03-22T01:31:40;43.40;;;19.08;;
84142;SDS011;74260;50.772;7.730;2024-03-22T01:32:14;39.05;;;17.35;;
84142;SDS011;74260;50.772;7.730;2024-03-22T01:32:47;48.20;;;18.92;;
84142;SDS011;74260;50.772;7.730;2024-03-22T01:33:20;44.90;;;20.52;;
84142;SDS011;74260;50.772;7.730;2024-03-22T01:33:54;43.70;;;19.50;;
84142;SDS011;74260;50.772;7.730;2024-03-22T01:34:25;45.92;;;19.10;;
84142;SDS011;74260;50.772;7.730;2024-03-22T01:35:57;48.80;;;19.67;;
84142;SDS011;74260;50.772;7.730;2024-03-22T01:36:31;44.15;;;19.65;;
84142;SDS011;74260;50.772;7.730;2024-03-22T01:37:07;43.22;;;18.73;;
84142;SDS011;74260;50.772;7.730;2024-03-22T01:37:41;41.25;;;17.70;;
84142;SDS011;74260;50.772;7.730;2024-03-22T01:38:18;44.30;;;18.23;;
84142;SDS011;74260;50.772;7.730;2024-03-22T01:38:54;45.88;;;18.88;;
84142;SDS011;74260;50.772;7.730;2024-03-22T01:39:26;43.47;;;19.58;;
84142;SDS011;74260;50.772;7.730;2024-03-22T01:40:04;41.22;;;17.60;;
84142;SDS011;74260;50.772;7.730;2024-03-22T01:40:36;46.22;;;18.25;;
84142;SDS011;74260;50.772;7.730;2024-03-22T01:41:07;48.33;;;21.40;;
84142;SDS011;74260;50.772;7.730;2024-03-22T01:41:37;50.40;;;20.35;;
84142;SDS011;74260;50.772;7.730;2024-03-22T01:42:10;46.78;;;19.58;;
84142;SDS011;74260;50.772;7.730;2024-03-22T01:42:41;47.63;;;20.20;;
84142;SDS011;74260;50.772;7.730;2024-03-22T01:43:14;49.05;;;20.48;;
84142;SDS011;74260;50.772;7.730;2024-03-22T01:43:45;44.25;;;19.38;;
84142;SDS011;74260;50.772;7.730;2024-03-22T01:44:52;40.47;;;16.63;;
84142;SDS011;74260;50.772;7.730;2024-03-22T01:45:24;47.38;;;19.38;;
84142;SDS011;74260;50.772;7.730;2024-03-22T01:46:08;43.67;;;18.73;;
84142;SDS011;74260;50.772;7.730;2024-03-22T01:47:02;39.75;;;16.55;;
84142;SDS011;74260;50.772;7.730;2024-03-22T01:47:33;39.67;;;16.10;;
84142;SDS011;74260;50.772;7.730;2024-03-22T01:48:04;45.38;;;18.38;;
84142;SDS011;74260;50.772;7.730;2024-03-22T01:48:34;45.33;;;18.77;;
84142;SDS011;74260;50.772;7.730;2024-03-22T01:49:10;43.90;;;18.52;;
84142;SDS011;74260;50.772;7.730;2024-03-22T01:49:47;48.97;;;20.10;;
84142;SDS011;74260;50.772;7.730;2024-03-22T01:50:24;39.30;;;14.25;;
84142;SDS011;74260;50.772;7.730;2024-03-22T01:50:56;27.73;;;12.82;;
84142;SDS011;74260;50.772;7.730;2024-03-22T01:51:27;21.58;;;10.93;;
84142;SDS011;74260;50.772;7.730;2024-03-22T01:52:00;20.23;;;8.88;;
84142;SDS011;74260;50.772;7.730;2024-03-22T01:52:31;19.58;;;9.15;;
84142;SDS011;74260;50.772;7.730;2024-03-22T01:53:04;21.58;;;10.20;;
84142;SDS011;74260;50.772;7.730;2024-03-22T01:53:38;28.40;;;11.07;;
84142;SDS011;74260;50.772;7.730;2024-03-22T01:54:12;22.52;;;10.38;;
84142;SDS011;74260;50.772;7.730;2024-03-22T01:55:03;20.73;;;10.50;;
84142;SDS011;74260;50.772;7.730;2024-03-22T01:55:36;21.55;;;10.68;;
84142;SDS011;74260;50.772;7.730;2024-03-22T01:56:08;22.33;;;10.40;;
84142;SDS011;74260;50.772;7.730;2024-03-22T01:56:41;33.97;;;14.63;;
84142;SDS011;74260;50.772;7.730;2024-03-22T01:57:12;39.90;;;15.57;;
84142;SDS011;74260;50.772;7.730;2024-03-22T01:57:43;34.50;;;16.27;;
84142;SDS011;74260;50.772;7.730;2024-03-22T01:58:46;37.97;;;15.95;;
84142;SDS011;74260;50.772;7.730;2024-03-22T01:59:19;40.58;;;15.80;;
84142;SDS011;74260;50.772;7.730;2024-03-22T01:59:51;42.78;;;17.17;;
84142;SDS011;74260;50.772;7.730;2024-03-22T02:00:28;41.45;;;17.48;;
84142;SDS011;74260;50.772;7.730;2024-03-22T02:00:59;47.53;;;19.05;;
84142;SDS011;74260;50.772;7.730;2024-03-22T02:01:40;46.17;;;19.27;;
84142;SDS011;74260;50.772;7.730;2024-03-22T02:02:20;44.55;;;19.30;;
84142;SDS011;74260;50.772;7.730;2024-03-22T02:03:23;38.92;;;16.67;;
84142;SDS011;74260;50.772;7.730;2024-03-22T02:03:55;42.67;;;18.10;;
84142;SDS011;74260;50.772;7.730;2024-03-22T02:04:26;41.22;;;18.25;;
84142;SDS011;74260;50.772;7.730;2024-03-22T02:04:57;43.72;;;18.08;;
84142;SDS011;74260;50.772;7.730;2024-03-22T02:05:30;47.17;;;21.20;;
84142;SDS011;74260;50.772;7.730;2024-03-22T02:06:31;44.97;;;18.27;;
84142;SDS011;74260;50.772;7.730;2024-03-22T02:07:01;44.28;;;19.08;;
84142;SDS011;74260;50.772;7.730;2024-03-22T02:07:34;47.28;;;19.83;;
84142;SDS011;74260;50.772;7.730;2024-03-22T02:08:06;42.30;;;19.33;;
84142;SDS011;74260;50.772;7.730;2024-03-22T02:08:38;49.10;;;20.08;;
84142;SDS011;74260;50.772;7.730;2024-03-22T02:09:13;48.45;;;20.85;;
84142;SDS011;74260;50.772;7.730;2024-03-22T02:09:45;46.20;;;19.50;;
84142;SDS011;74260;50.772;7.730;2024-03-22T02:10:27;50.03;;;20.35;;
84142;SDS011;74260;50.772;7.730;2024-03-22T02:11:00;44.70;;;19.48;;
84142;SDS011;74260;50.772;7.730;2024-03-22T02:11:32;44.58;;;19.30;;
84142;SDS011;74260;50.772;7.730;2024-03-22T02:12:03;45.40;;;19.33;;
84142;SDS011;74260;50.772;7.730;2024-03-22T02:12:34;49.08;;;20.80;;
84142;SDS011;74260;50.772;7.730;2024-03-22T02:13:05;44.95;;;19.55;;
84142;SDS011;74260;50.772;7.730;2024-03-22T02:13:36;46.22;;;20.50;;
84142;SDS011;74260;50.772;7.730;2024-03-22T02:14:12;45.60;;;21.27;;
84142;SDS011;74260;50.772;7.730;2024-03-22T02:14:47;46.85;;;19.80;;
84142;SDS011;74260;50.772;7.730;2024-03-22T02:15:20;48.45;;;19.52;;
84142;SDS011;74260;50.772;7.730;2024-03-22T02:15:53;51.88;;;20.40;;
84142;SDS011;74260;50.772;7.730;2024-03-22T02:16:30;48.00;;;19.30;;
84142;SDS011;74260;50.772;7.730;2024-03-22T02:17:03;48.35;;;21.17;;
84142;SDS011;74260;50.772;7.730;2024-03-22T02:17:39;48.55;;;20.58;;
84142;SDS011;74260;50.772;7.730;2024-03-22T02:18:11;46.88;;;21.02;;
84142;SDS011;74260;50.772;7.730;2024-03-22T02:18:42;45.75;;;19.52;;
84142;SDS011;74260;50.772;7.730;2024-03-22T02:19:17;45.10;;;20.73;;
84142;SDS011;74260;50.772;7.730;2024-03-22T02:19:48;47.75;;;18.85;;
84142;SDS011;74260;50.772;7.730;2024-03-22T02:20:20;49.45;;;20.48;;
84142;SDS011;74260;50.772;7.730;2024-03-22T02:20:51;47.75;;;21.13;;
84142;SDS011;74260;50.772;7.730;2024-03-22T02:21:23;47.55;;;20.60;;
84142;SDS011;74260;50.772;7.730;2024-03-22T02:21:58;48.75;;;19.92;;
84142;SDS011;74260;50.772;7.730;2024-03-22T02:22:38;47.08;;;19.15;;
84142;SDS011;74260;50.772;7.730;2024-03-22T02:23:14;44.65;;;18.95;;
84142;SDS011;74260;50.772;7.730;2024-03-22T02:23:47;41.40;;;18.98;;
84142;SDS011;74260;50.772;7.730;2024-03-22T02:24:19;49.25;;;21.48;;
84142;SDS011;74260;50.772;7.730;2024-03-22T02:24:53;48.15;;;20.30;;
84142;SDS011;74260;50.772;7.730;2024-03-22T02:25:23;48.92;;;21.30;;
84142;SDS011;74260;50.772;7.730;2024-03-22T02:25:57;44.38;;;19.73;;
84142;SDS011;74260;50.772;7.730;2024-03-22T02:26:32;43.85;;;18.88;;
84142;SDS011;74260;50.772;7.730;2024-03-22T02:27:05;44.40;;;19.95;;
84142;SDS011;74260;50.772;7.730;2024-03-22T02:27:41;47.40;;;20.77;;
84142;SDS011;74260;50.772;7.730;2024-03-22T02:28:13;50.40;;;20.40;;
84142;SDS011;74260;50.772;7.730;2024-03-22T02:28:51;46.92;;;19.00;;
84142;SDS011;74260;50.772;7.730;2024-03-22T02:29:31;44.83;;;19.77;;
84142;SDS011;74260;50.772;7.730;2024-03-22T02:30:01;45.90;;;21.10;;
84142;SDS011;74260;50.772;7.730;2024-03-22T02:30:34;47.20;;;21.05;;
84142;SDS011;74260;50.772;7.730;2024-03-22T02:31:06;43.72;;;19.35;;
84142;SDS011;74260;50.772;7.730;2024-03-22T02:31:36;48.67;;;20.48;;
84142;SDS011;74260;50.772;7.730;2024-03-22T02:32:08;45.78;;;19.55;;
84142;SDS011;74260;50.772;7.730;2024-03-22T02:32:39;39.85;;;17.50;;
84142;SDS011;74260;50.772;7.730;2024-03-22T02:33:11;43.67;;;20.13;;
84142;SDS011;74260;50.772;7.730;2024-03-22T02:33:46;46.85;;;20.40;;
84142;SDS011;74260;50.772;7.730;2024-03-22T02:34:18;47.85;;;18.50;;
84142;SDS011;74260;50.772;7.730;2024-03-22T02:34:48;44.78;;;20.85;;
84142;SDS011;74260;50.772;7.730;2024-03-22T02:35:20;45.10;;;21.45;;
84142;SDS011;74260;50.772;7.730;2024-03-22T02:35:50;42.85;;;19.50;;
84142;SDS011;74260;50.772;7.730;2024-03-22T02:36:27;42.42;;;20.27;;
84142;SDS011;74260;50.772;7.730;2024-03-22T02:36:59;44.65;;;21.02;;
84142;SDS011;74260;50.772;7.730;2024-03-22T02:37:29;51.08;;;21.08;;
84142;SDS011;74260;50.772;7.730;2024-03-22T02:38:02;52.20;;;20.98;;
84142;SDS011;74260;50.772;7.730;2024-03-22T02:38:33;47.10;;;20.70;;
84142;SDS011;74260;50.772;7.730;2024-03-22T02:39:14;52.03;;;20.50;;
84142;SDS011;74260;50.772;7.730;2024-03-22T02:39:46;47.63;;;20.58;;
84142;SDS011;74260;50.772;7.730;2024-03-22T02:40:21;48.90;;;19.10;;
84142;SDS011;74260;50.772;7.730;2024-03-22T02:41:00;51.55;;;20.90;;
84142;SDS011;74260;50.772;7.730;2024-03-22T02:41:31;49.42;;;19.65;;
84142;SDS011;74260;50.772;7.730;2024-03-22T02:42:10;44.45;;;19.10;;
84142;SDS011;74260;50.772;7.730;2024-03-22T02:42:44;48.70;;;19.85;;
84142;SDS011;74260;50.772;7.730;2024-03-22T02:43:22;40.75;;;18.10;;
84142;SDS011;74260;50.772;7.730;2024-03-22T02:44:02;47.50;;;20.88;;
84142;SDS011;74260;50.772;7.730;2024-03-22T02:44:37;48.35;;;18.63;;
84142;SDS011;74260;50.772;7.730;2024-03-22T02:45:14;49.17;;;19.67;;
84142;SDS011;74260;50.772;7.730;2024-03-22T02:45:46;49.17;;;20.25;;
84142;SDS011;74260;50.772;7.730;2024-03-22T02:46:45;50.47;;;18.65;;
84142;SDS011;74260;50.772;7.730;2024-03-22T02:47:38;45.17;;;19.35;;
84142;SDS011;74260;50.772;7.730;2024-03-22T02:48:10;47.35;;;19.52;;
84142;SDS011;74260;50.772;7.730;2024-03-22T02:48:42;44.42;;;20.55;;
84142;SDS011;74260;50.772;7.730;2024-03-22T02:49:16;50.05;;;19.83;;
84142;SDS011;74260;50.772;7.730;2024-03-22T02:49:57;41.88;;;18.67;;
84142;SDS011;74260;50.772;7.730;2024-03-22T02:50:33;46.40;;;18.95;;
84142;SDS011;74260;50.772;7.730;2024-03-22T02:51:30;43.78;;;17.23;;
84142;SDS011;74260;50.772;7.730;2024-03-22T02:52:12;46.20;;;18.20;;
84142;SDS011;74260;50.772;7.730;2024-03-22T02:52:49;44.15;;;19.98;;
84142;SDS011;74260;50.772;7.730;2024-03-22T02:53:21;44.63;;;19.65;;
84142;SDS011;74260;50.772;7.730;2024-03-22T02:54:05;46.75;;;18.90;;
84142;SDS011;74260;50.772;7.730;2024-03-22T02:54:40;44.58;;;17.73;;
84142;SDS011;74260;50.772;7.730;2024-03-22T02:55:11;49.17;;;18.30;;
84142;SDS011;74260;50.772;7.730;2024-03-22T02:55:47;39.97;;;18.65;;
84142;SDS011;74260;50.772;7.730;2024-03-22T02:56:40;43.10;;;18.67;;
84142;SDS011;74260;50.772;7.730;2024-03-22T02:57:16;46.03;;;18.75;;
84142;SDS011;74260;50.772;7.730;2024-03-22T02:57:48;40.40;;;16.17;;
84142;SDS011;74260;50.772;7.730;2024-03-22T02:58:39;44.05;;;17.40;;
84142;SDS011;74260;50.772;7.730;2024-03-22T02:59:11;41.88;;;17.90;;
84142;SDS011;74260;50.772;7.730;2024-03-22T02:59:41;39.58;;;17.85;;
84142;SDS011;74260;50.772;7.730;2024-03-22T03:00:13;51.75;;;19.73;;
84142;SDS011;74260;50.772;7.730;2024-03-22T03:00:45;44.63;;;20.15;;
84142;SDS011;74260;50.772;7.730;2024-03-22T03:01:51;38.70;;;16.63;;
84142;SDS011;74260;50.772;7.730;2024-03-22T03:02:26;40.88;;;16.20;;
84142;SDS011;74260;50.772;7.730;2024-03-22T03:02:57;43.33;;;18.85;;
84142;SDS011;74260;50.772;7.730;2024-03-22T03:03:33;39.70;;;17.90;;
84142;SDS011;74260;50.772;7.730;2024-03-22T03:04:04;45.72;;;18.30;;
84142;SDS011;74260;50.772;7.730;2024-03-22T03:04:35;37.75;;;15.88;;
84142;SDS011;74260;50.772;7.730;2024-03-22T03:05:08;41.22;;;17.30;;
84142;SDS011;74260;50.772;7.730;2024-03-22T03:05:46;37.60;;;15.65;;
84142;SDS011;74260;50.772;7.730;2024-03-22T03:06:58;34.17;;;15.10;;
84142;SDS011;74260;50.772;7.730;2024-03-22T03:07:40;36.58;;;15.70;;
84142;SDS011;74260;50.772;7.730;2024-03-22T03:08:26;36.97;;;15.90;;
84142;SDS011;74260;50.772;7.730;2024-03-22T03:09:00;40.70;;;16.60;;
84142;SDS011;74260;50.772;7.730;2024-03-22T03:09:37;43.47;;;17.20;;
84142;SDS011;74260;50.772;7.730;2024-03-22T03:10:09;39.72;;;16.23;;
84142;SDS011;74260;50.772;7.730;2024-03-22T03:10:41;45.15;;;15.85;;
84142;SDS011;74260;50.772;7.730;2024-03-22T03:11:15;38.72;;;16.45;;
84142;SDS011;74260;50.772;7.730;2024-03-22T03:11:49;36.95;;;15.38;;
84142;SDS011;74260;50.772;7.730;2024-03-22T03:12:19;38.08;;;17.20;;
84142;SDS011;74260;50.772;7.730;2024-03-22T03:12:56;41.78;;;18.52;;
84142;SDS011;74260;50.772;7.730;2024-03-22T03:13:28;37.90;;;16.58;;
84142;SDS011;74260;50.772;7.730;2024-03-22T03:13:58;44.03;;;16.85;;
84142;SDS011;74260;50.772;7.730;2024-03-22T03:14:29;41.10;;;18.48;;
84142;SDS011;74260;50.772;7.730;2024-03-22T03:15:03;39.33;;;17.48;;
84142;SDS011;74260;50.772;7.730;2024-03-22T03:15:36;38.25;;;15.50;;
84142;SDS011;74260;50.772;7.730;2024-03-22T03:16:08;42.33;;;17.67;;
84142;SDS011;74260;50.772;7.730;2024-03-22T03:16:38;43.38;;;18.08;;
84142;SDS011;74260;50.772;7.730;2024-03-22T03:17:10;39.53;;;16.98;;
84142;SDS011;74260;50.772;7.730;2024-03-22T03:17:42;41.60;;;17.05;;
84142;SDS011;74260;50.772;7.730;2024-03-22T03:18:24;43.42;;;17.77;;
84142;SDS011;74260;50.772;7.730;2024-03-22T03:19:04;39.42;;;16.50;;
84142;SDS011;74260;50.772;7.730;2024-03-22T03:19:35;39.60;;;15.55;;
84142;SDS011;74260;50.772;7.730;2024-03-22T03:20:06;40.55;;;18.73;;
84142;SDS011;74260;50.772;7.730;2024-03-22T03:20:43;48.65;;;17.98;;
84142;SDS011;74260;50.772;7.730;2024-03-22T03:21:20;41.47;;;18.85;;
84142;SDS011;74260;50.772;7.730;2024-03-22T03:22:01;41.58;;;16.27;;